Time;durP1;ratioP1;P1;durP2;ratioP2;P2;SDS_P1;SDS_P2;PMS_P1;PMS_P2;Temp;Humidity;BMP_temperature;BMP_pressure;BME280_temperature;BME280_humidity;BME280_pressure;Samples;Min_cycle;Max_cycle;Signal;HPM_P1;HPM_P2
2023/04/26 00:00:07;;;;;;;8.03;2.60;;;3.40;99.90;;;;;;5105034;28;20220;-80
2023/04/26 00:02:34;;;;;;;6.07;2.33;;;3.50;99.90;;;;;;5108991;28;20224;-79
2023/04/26 00:05:02;;;;;;;7.27;2.20;;;3.50;99.90;;;;;;5105591;28;20634;-80
2023/04/26 00:07:29;;;;;;;8.83;3.00;;;3.40;99.90;;;;;;5092045;28;20686;-80
2023/04/26 00:09:56;;;;;;;8.70;2.63;;;3.50;99.90;;;;;;5099018;28;20579;-80
2023/04/26 00:12:24;;;;;;;4.07;2.00;;;3.50;99.90;;;;;;5113178;28;20204;-80
2023/04/26 00:14:53;;;;;;;4.20;2.00;;;3.60;99.90;;;;;;5094175;28;20316;-80
2023/04/26 00:17:20;;;;;;;3.63;2.17;;;3.50;99.90;;;;;;5092553;28;20650;-80
2023/04/26 00:19:46;;;;;;;5.03;2.80;;;3.60;99.90;;;;;;5093591;28;20695;-80
2023/04/26 00:22:14;;;;;;;7.83;2.30;;;3.60;99.90;;;;;;5094589;28;20289;-80
2023/04/26 00:24:40;;;;;;;10.27;2.70;;;3.60;99.90;;;;;;5093649;28;20623;-80
2023/04/26 00:27:09;;;;;;;8.07;2.50;;;3.50;99.90;;;;;;5092138;28;20703;-80
2023/04/26 00:29:37;;;;;;;5.13;2.30;;;3.40;99.90;;;;;;5093861;28;20225;-79
2023/04/26 00:32:05;;;;;;;8.00;2.17;;;3.20;99.90;;;;;;5094245;28;20210;-79
2023/04/26 00:34:33;;;;;;;8.77;2.20;;;3.30;99.90;;;;;;5094481;28;20262;-80
2023/04/26 00:36:59;;;;;;;6.50;2.40;;;3.30;99.90;;;;;;5093591;28;20570;-79
2023/04/26 00:39:26;;;;;;;6.90;2.20;;;3.30;99.90;;;;;;5092320;28;20233;-80
2023/04/26 00:41:53;;;;;;;4.90;2.13;;;3.30;99.90;;;;;;5093882;28;20228;-79
2023/04/26 00:44:20;;;;;;;8.47;2.73;;;3.10;99.90;;;;;;5102880;28;20211;-79
2023/04/26 00:46:49;;;;;;;6.20;2.20;;;3.00;99.90;;;;;;5113702;28;20193;-79
2023/04/26 00:49:17;;;;;;;6.87;2.40;;;3.10;99.90;;;;;;5100411;28;20217;-79
2023/04/26 00:51:44;;;;;;;6.60;2.10;;;3.20;99.90;;;;;;5112948;28;20200;-80
2023/04/26 00:54:12;;;;;;;7.57;2.27;;;3.10;99.90;;;;;;5101479;28;20247;-79
2023/04/26 00:56:39;;;;;;;5.67;2.23;;;3.00;99.90;;;;;;5092648;28;20574;-80
2023/04/26 00:59:06;;;;;;;8.63;2.57;;;3.00;99.90;;;;;;5091434;28;20240;-79
2023/04/26 01:01:33;;;;;;;5.10;2.27;;;3.00;99.90;;;;;;5092032;28;20206;-79
2023/04/26 01:04:02;;;;;;;5.73;2.77;;;2.80;99.90;;;;;;5092708;28;20204;-79
2023/04/26 01:06:33;;;;;;;5.57;2.53;;;2.70;99.90;;;;;;5103331;28;20682;-79
2023/04/26 01:09:03;;;;;;;5.23;2.40;;;2.50;99.90;;;;;;5111760;28;20225;-80
2023/04/26 01:11:31;;;;;;;5.87;2.13;;;2.50;99.90;;;;;;5103943;28;20211;-80
2023/04/26 01:13:58;;;;;;;7.70;2.60;;;2.50;99.90;;;;;;5095907;28;20588;-80
2023/04/26 01:16:27;;;;;;;10.30;2.90;;;2.60;99.90;;;;;;5095596;28;20205;-80
2023/04/26 01:18:54;;;;;;;10.60;2.77;;;2.80;99.90;;;;;;5114715;28;20221;-80
2023/04/26 01:21:22;;;;;;;7.27;2.80;;;2.80;99.90;;;;;;5112707;28;20566;-80
2023/04/26 01:23:51;;;;;;;8.23;3.27;;;2.80;99.90;;;;;;5101786;28;20570;-80
2023/04/26 01:26:18;;;;;;;5.43;2.50;;;2.70;99.90;;;;;;5110987;28;20255;-81
2023/04/26 01:28:45;;;;;;;12.37;3.80;;;2.80;99.90;;;;;;5110878;28;20225;-81
2023/04/26 01:31:12;;;;;;;6.23;2.70;;;2.80;99.90;;;;;;5115061;28;20667;-80
2023/04/26 01:33:39;;;;;;;11.43;3.70;;;2.90;99.90;;;;;;5095976;28;20209;-81
2023/04/26 01:36:09;;;;;;;13.93;3.20;;;2.80;99.90;;;;;;5095984;28;20201;-81
2023/04/26 01:38:36;;;;;;;5.70;2.60;;;2.90;99.90;;;;;;5095742;28;20290;-81
2023/04/26 01:41:04;;;;;;;6.73;2.77;;;2.80;99.90;;;;;;5096250;28;20215;-81
2023/04/26 01:43:31;;;;;;;8.13;3.67;;;2.80;99.90;;;;;;5098351;28;20208;-81
2023/04/26 01:45:58;;;;;;;9.87;2.83;;;2.70;99.90;;;;;;5117399;28;20562;-80
2023/04/26 01:48:25;;;;;;;8.07;3.00;;;2.70;99.90;;;;;;5117167;28;20224;-80
2023/04/26 01:50:51;;;;;;;6.73;3.40;;;2.70;99.90;;;;;;5117664;28;20556;-80
2023/04/26 01:53:18;;;;;;;6.17;3.57;;;2.70;99.90;;;;;;5117661;28;20551;-80
2023/04/26 01:55:45;;;;;;;9.00;3.37;;;2.70;99.90;;;;;;5117977;28;20201;-81
2023/04/26 01:58:13;;;;;;;10.63;3.00;;;2.70;99.90;;;;;;5117744;28;20702;-80
2023/04/26 02:00:40;;;;;;;5.67;2.77;;;2.70;99.90;;;;;;5113557;28;20201;-80
2023/04/26 02:03:07;;;;;;;9.63;2.97;;;2.70;99.90;;;;;;5097883;28;20204;-80
2023/04/26 02:05:34;;;;;;;11.60;3.33;;;2.80;99.90;;;;;;5097132;28;20671;-80
2023/04/26 02:08:00;;;;;;;5.90;2.87;;;2.70;99.90;;;;;;5096728;28;20282;-80
2023/04/26 02:10:27;;;;;;;10.43;3.97;;;2.60;99.90;;;;;;5097066;28;20590;-80
2023/04/26 02:12:54;;;;;;;8.50;3.23;;;2.70;99.90;;;;;;5097535;28;20202;-81
2023/04/26 02:15:22;;;;;;;8.20;3.10;;;2.70;99.90;;;;;;5096668;28;20210;-80
2023/04/26 02:17:49;;;;;;;7.10;3.07;;;2.60;99.90;;;;;;5097002;28;20711;-80
2023/04/26 02:20:16;;;;;;;13.83;3.47;;;2.60;99.90;;;;;;5095716;28;20217;-80
2023/04/26 02:22:43;;;;;;;6.77;3.37;;;2.60;99.90;;;;;;5096045;28;20236;-81
2023/04/26 02:25:10;;;;;;;6.60;3.30;;;2.50;99.90;;;;;;5097212;28;20204;-84
2023/04/26 02:27:37;;;;;;;9.53;3.77;;;2.40;99.90;;;;;;5096255;28;20578;-81
2023/04/26 02:30:05;;;;;;;8.47;4.83;;;2.40;99.90;;;;;;5095728;28;20226;-81
2023/04/26 02:32:33;;;;;;;6.30;3.73;;;2.50;99.90;;;;;;5096836;28;20198;-80
2023/04/26 02:35:00;;;;;;;5.93;3.23;;;2.50;99.90;;;;;;5097321;28;20213;-81
2023/04/26 02:37:27;;;;;;;7.17;3.00;;;2.40;99.90;;;;;;5101886;28;20197;-80
2023/04/26 02:39:53;;;;;;;6.90;2.80;;;2.40;99.90;;;;;;5112297;28;20221;-80
2023/04/26 02:42:20;;;;;;;6.67;3.03;;;2.40;99.90;;;;;;5094846;28;20209;-80
2023/04/26 02:44:47;;;;;;;8.77;3.03;;;2.30;99.90;;;;;;5092427;28;20205;-79
2023/04/26 02:47:14;;;;;;;8.47;3.37;;;2.40;99.90;;;;;;5110088;28;20223;-80
2023/04/26 02:49:42;;;;;;;11.47;3.60;;;2.40;99.90;;;;;;5115647;28;20228;-80
2023/04/26 02:52:09;;;;;;;5.57;3.13;;;2.30;99.90;;;;;;5109852;28;20688;-80
2023/04/26 02:54:35;;;;;;;9.40;3.40;;;2.30;99.90;;;;;;5112098;28;20644;-80
2023/04/26 02:57:02;;;;;;;8.87;3.33;;;2.20;99.90;;;;;;5117441;28;20197;-80
2023/04/26 02:59:29;;;;;;;7.07;3.30;;;2.10;99.90;;;;;;5116865;28;20239;-80
2023/04/26 03:01:56;;;;;;;5.67;2.87;;;2.00;99.90;;;;;;5117338;28;20655;-80
2023/04/26 03:04:23;;;;;;;6.07;2.87;;;2.00;99.90;;;;;;5113457;28;20298;-80
2023/04/26 03:06:51;;;;;;;8.53;2.50;;;2.00;99.90;;;;;;5099087;28;20360;-80
2023/04/26 03:09:18;;;;;;;6.07;3.57;;;2.00;99.90;;;;;;5101385;28;20229;-80
2023/04/26 03:11:45;;;;;;;15.83;3.57;;;2.10;99.90;;;;;;5100589;28;20189;-80
2023/04/26 03:14:12;;;;;;;8.50;3.27;;;2.00;99.90;;;;;;5114604;28;20284;-79
2023/04/26 03:16:42;;;;;;;7.90;4.00;;;2.00;99.90;;;;;;5111098;28;20193;-79
2023/04/26 03:19:09;;;;;;;8.90;4.43;;;2.00;99.90;;;;;;5101214;28;20220;-79
2023/04/26 03:21:36;;;;;;;10.33;3.63;;;2.00;99.90;;;;;;5097317;28;20699;-79
2023/04/26 03:24:04;;;;;;;4.03;2.90;;;2.00;99.90;;;;;;5095558;28;20208;-79
2023/04/26 03:26:33;;;;;;;9.60;3.33;;;1.90;99.90;;;;;;5097454;28;20198;-82
2023/04/26 03:28:59;;;;;;;8.00;3.27;;;1.90;99.90;;;;;;5114897;28;20315;-80
2023/04/26 03:31:26;;;;;;;8.17;3.10;;;1.90;99.90;;;;;;5117087;28;20208;-80
2023/04/26 03:33:53;;;;;;;7.83;2.80;;;2.00;99.90;;;;;;5116147;28;20208;-80
2023/04/26 03:36:20;;;;;;;5.20;3.00;;;1.90;99.90;;;;;;5118111;28;20204;-80
2023/04/26 03:38:46;;;;;;;11.43;3.30;;;1.90;99.90;;;;;;5100915;28;20236;-80
2023/04/26 03:41:15;;;;;;;9.43;3.40;;;1.80;99.90;;;;;;5096072;28;20291;-80
2023/04/26 03:43:44;;;;;;;5.50;2.80;;;1.60;99.90;;;;;;5096079;28;20206;-82
2023/04/26 03:46:11;;;;;;;8.50;3.70;;;1.50;99.90;;;;;;5096168;28;20577;-80
2023/04/26 03:48:38;;;;;;;8.67;3.70;;;1.50;99.90;;;;;;5104215;28;20231;-79
2023/04/26 03:51:05;;;;;;;13.87;4.17;;;1.50;99.90;;;;;;5104608;28;20285;-81
2023/04/26 03:53:31;;;;;;;10.03;3.50;;;1.50;99.90;;;;;;5114259;28;20197;-80
2023/04/26 03:55:58;;;;;;;9.00;3.77;;;1.50;99.90;;;;;;5112548;28;20194;-80
2023/04/26 03:58:26;;;;;;;8.53;3.20;;;1.60;99.90;;;;;;5106116;28;20208;-81
2023/04/26 04:00:57;;;;;;;8.60;3.03;;;1.70;99.90;;;;;;5116842;28;20195;-80
2023/04/26 04:03:24;;;;;;;10.70;3.93;;;1.70;99.90;;;;;;5108843;28;20255;-80
2023/04/26 04:05:50;;;;;;;7.20;3.67;;;1.80;99.90;;;;;;5116356;28;20197;-81
2023/04/26 04:08:17;;;;;;;9.60;3.50;;;1.80;99.90;;;;;;5115522;28;20221;-80
2023/04/26 04:10:44;;;;;;;6.13;3.53;;;1.70;99.90;;;;;;5113554;28;20293;-79
2023/04/26 04:13:11;;;;;;;7.27;3.60;;;1.70;99.90;;;;;;5115211;28;20583;-80
2023/04/26 04:15:39;;;;;;;8.67;3.70;;;1.70;99.90;;;;;;5116131;28;20197;-80
2023/04/26 04:18:06;;;;;;;12.23;3.40;;;1.70;99.90;;;;;;5116280;28;20205;-80
2023/04/26 04:20:33;;;;;;;9.13;3.80;;;1.70;99.90;;;;;;5115493;28;20221;-80
2023/04/26 04:23:00;;;;;;;6.07;3.40;;;1.80;99.90;;;;;;5116367;28;20227;-80
2023/04/26 04:25:27;;;;;;;8.63;3.87;;;1.80;99.90;;;;;;5116696;28;20299;-80
2023/04/26 04:27:55;;;;;;;6.67;3.67;;;1.90;99.90;;;;;;5115920;28;20714;-80
2023/04/26 04:30:23;;;;;;;6.90;3.40;;;1.90;99.90;;;;;;5116628;28;20225;-80
2023/04/26 04:32:51;;;;;;;7.07;3.07;;;1.90;99.90;;;;;;5116878;28;20207;-80
2023/04/26 04:35:18;;;;;;;5.43;3.30;;;2.00;99.90;;;;;;5116385;28;20232;-81
2023/04/26 04:37:45;;;;;;;7.53;3.60;;;1.80;99.90;;;;;;5117047;28;20666;-80
2023/04/26 04:40:12;;;;;;;9.73;3.90;;;2.00;99.90;;;;;;5116165;28;20217;-80
2023/04/26 04:42:39;;;;;;;11.70;4.10;;;2.10;99.90;;;;;;5115726;28;20236;-81
2023/04/26 04:45:07;;;;;;;10.03;3.90;;;2.30;99.90;;;;;;5116527;28;20208;-80
2023/04/26 04:47:36;;;;;;;8.90;3.83;;;2.40;99.90;;;;;;5116662;28;20215;-80
2023/04/26 04:50:05;;;;;;;9.57;3.53;;;2.70;99.90;;;;;;5116519;28;20345;-80
2023/04/26 04:52:32;;;;;;;8.70;3.53;;;3.50;99.90;;;;;;5107144;28;20201;-81
2023/04/26 04:54:59;;;;;;;7.87;3.47;;;4.10;99.90;;;;;;5100997;28;20193;-80
2023/04/26 04:57:27;;;;;;;7.27;4.07;;;5.00;99.90;;;;;;5116336;28;20230;-80
2023/04/26 04:59:53;;;;;;;7.43;3.17;;;5.20;99.90;;;;;;5098574;28;20228;-80
2023/04/26 05:02:20;;;;;;;8.30;3.17;;;5.40;99.90;;;;;;5096745;28;20576;-80
2023/04/26 05:04:48;;;;;;;6.40;3.10;;;5.40;99.90;;;;;;5096209;28;20579;-80
2023/04/26 05:07:17;;;;;;;7.43;3.40;;;5.20;99.90;;;;;;5098928;28;20269;-80
2023/04/26 05:09:44;;;;;;;6.57;3.23;;;5.30;99.90;;;;;;5111397;28;20773;-80
2023/04/26 05:12:11;;;;;;;7.63;2.93;;;5.20;99.90;;;;;;5110109;28;20287;-80
2023/04/26 05:14:39;;;;;;;10.63;3.07;;;4.60;99.90;;;;;;5096248;28;20499;-80
2023/04/26 05:17:06;;;;;;;8.97;4.50;;;4.30;99.90;;;;;;5096133;28;20263;-80
2023/04/26 05:19:33;;;;;;;7.80;3.23;;;4.20;99.90;;;;;;5093671;28;20222;-80
2023/04/26 05:21:59;;;;;;;9.53;3.47;;;4.10;99.90;;;;;;5095378;28;20212;-80
2023/04/26 05:24:30;;;;;;;9.40;3.50;;;4.30;99.90;;;;;;5095666;28;20445;-79
2023/04/26 05:26:58;;;;;;;9.13;3.47;;;4.20;99.90;;;;;;5095823;28;20207;-80
2023/04/26 05:29:28;;;;;;;6.10;3.13;;;4.20;99.90;;;;;;5095371;28;20226;-80
2023/04/26 05:31:55;;;;;;;10.27;3.93;;;5.40;99.90;;;;;;5096032;28;20205;-80
2023/04/26 05:34:22;;;;;;;10.87;3.50;;;6.30;99.90;;;;;;5096066;28;20216;-80
2023/04/26 05:36:50;;;;;;;11.20;3.23;;;6.30;99.90;;;;;;5096628;28;20289;-80
2023/04/26 05:39:18;;;;;;;15.27;3.70;;;6.10;99.90;;;;;;5095707;28;20221;-80
2023/04/26 05:41:46;;;;;;;7.37;3.03;;;6.10;99.90;;;;;;5096449;28;20210;-80
2023/04/26 05:44:13;;;;;;;10.53;3.47;;;6.30;99.90;;;;;;5096039;28;20245;-80
2023/04/26 05:46:40;;;;;;;9.77;3.00;;;6.70;99.90;;;;;;5094152;28;20205;-81
2023/04/26 05:49:07;;;;;;;11.77;3.73;;;6.90;99.90;;;;;;5093926;28;20292;-81
2023/04/26 05:51:34;;;;;;;8.03;3.70;;;6.40;99.90;;;;;;5094814;28;20740;-80
2023/04/26 05:54:01;;;;;;;13.33;3.47;;;6.40;99.90;;;;;;5100927;28;20254;-80
2023/04/26 05:56:28;;;;;;;9.33;2.80;;;6.80;99.90;;;;;;5098852;28;20205;-80
2023/04/26 05:58:56;;;;;;;6.70;2.67;;;6.40;99.90;;;;;;5097511;28;20236;-80
2023/04/26 06:01:23;;;;;;;9.07;5.10;;;6.40;99.90;;;;;;5115234;28;20727;-80
2023/04/26 06:03:50;;;;;;;8.40;3.07;;;7.70;99.90;;;;;;5109156;28;20292;-80
2023/04/26 06:06:17;;;;;;;9.63;3.47;;;8.20;99.90;;;;;;5099461;28;20210;-80
2023/04/26 06:08:44;;;;;;;9.13;2.97;;;7.80;99.90;;;;;;5098727;28;20664;-80
2023/04/26 06:11:11;;;;;;;9.60;3.20;;;7.70;99.90;;;;;;5096733;28;20205;-80
2023/04/26 06:13:38;;;;;;;10.03;3.10;;;6.80;99.90;;;;;;5099002;28;20202;-80
2023/04/26 06:16:07;;;;;;;7.97;3.07;;;7.00;99.90;;;;;;5097261;28;20285;-80
2023/04/26 06:18:34;;;;;;;11.63;3.10;;;6.80;99.90;;;;;;5108143;28;20225;-79
2023/04/26 06:21:01;;;;;;;8.03;3.20;;;6.70;99.90;;;;;;5118022;28;20208;-80
2023/04/26 06:23:27;;;;;;;8.40;3.07;;;6.70;99.90;;;;;;5118571;28;20205;-79
2023/04/26 06:25:54;;;;;;;4.57;2.73;;;6.60;99.90;;;;;;5119019;28;20288;-80
2023/04/26 06:28:21;;;;;;;13.57;3.33;;;7.20;99.90;;;;;;5111793;28;20197;-80
2023/04/26 06:30:48;;;;;;;8.77;2.90;;;7.40;99.90;;;;;;5107683;28;20316;-80
2023/04/26 06:33:16;;;;;;;4.00;2.70;;;7.30;99.90;;;;;;5105361;28;20200;-80
2023/04/26 06:35:43;;;;;;;9.13;3.00;;;7.00;99.90;;;;;;5120128;28;20288;-80
2023/04/26 06:38:11;;;;;;;7.93;3.10;;;7.50;99.90;;;;;;5108409;28;20215;-80
2023/04/26 06:40:38;;;;;;;12.50;3.33;;;8.10;99.90;;;;;;5098805;28;20269;-80
2023/04/26 06:43:05;;;;;;;7.33;3.23;;;9.10;99.90;;;;;;5110160;28;20209;-81
2023/04/26 06:45:32;;;;;;;8.07;2.63;;;9.60;99.90;;;;;;5119571;28;20676;-80
2023/04/26 06:48:00;;;;;;;7.67;2.50;;;9.20;99.90;;;;;;5117490;28;20246;-80
2023/04/26 06:50:29;;;;;;;9.83;2.60;;;9.10;99.90;;;;;;5117220;28;20260;-80
2023/04/26 06:52:56;;;;;;;8.90;3.13;;;9.10;99.90;;;;;;5117225;28;20226;-81
2023/04/26 06:55:23;;;;;;;6.13;3.13;;;8.90;99.90;;;;;;5119553;28;20201;-80
2023/04/26 06:57:50;;;;;;;7.47;3.00;;;8.80;99.90;;;;;;5119121;28;20727;-81
2023/04/26 07:00:17;;;;;;;6.60;2.70;;;9.30;99.90;;;;;;5118394;28;20228;-80
2023/04/26 07:02:44;;;;;;;6.47;3.00;;;9.50;99.90;;;;;;5118358;28;20211;-81
2023/04/26 07:05:11;;;;;;;6.00;2.70;;;9.70;99.90;;;;;;5117926;28;20200;-80
2023/04/26 07:07:40;;;;;;;4.43;2.70;;;8.90;99.90;;;;;;5119256;28;20326;-81
2023/04/26 07:10:08;;;;;;;8.63;2.70;;;8.90;99.90;;;;;;5117950;28;20319;-80
2023/04/26 07:12:35;;;;;;;7.80;2.60;;;8.60;99.90;;;;;;5118789;28;20212;-79
2023/04/26 07:15:03;;;;;;;5.87;2.80;;;7.90;99.90;;;;;;5118523;28;20710;-80
2023/04/26 07:17:30;;;;;;;5.20;2.50;;;7.70;99.90;;;;;;5118868;27;20608;-80
2023/04/26 07:19:56;;;;;;;6.97;2.50;;;8.00;99.90;;;;;;5118841;28;20221;-80
2023/04/26 07:22:24;;;;;;;6.33;3.20;;;7.90;99.90;;;;;;5118438;28;20201;-80
2023/04/26 07:24:52;;;;;;;9.33;2.97;;;7.80;99.90;;;;;;5117430;28;20207;-80
2023/04/26 07:27:19;;;;;;;8.37;2.80;;;8.50;99.90;;;;;;5117802;28;20197;-81
2023/04/26 07:29:46;;;;;;;10.70;2.93;;;9.50;99.90;;;;;;5117809;28;20231;-80
2023/04/26 07:32:13;;;;;;;6.57;3.10;;;9.10;99.90;;;;;;5117882;28;20213;-80
2023/04/26 07:34:39;;;;;;;7.67;2.80;;;8.20;99.90;;;;;;5118675;28;20201;-80
2023/04/26 07:37:06;;;;;;;6.70;2.70;;;8.00;99.90;;;;;;5118481;28;20205;-80
2023/04/26 07:39:34;;;;;;;5.47;2.73;;;7.80;99.90;;;;;;5118182;28;20217;-80
2023/04/26 07:42:02;;;;;;;9.13;3.27;;;7.80;99.90;;;;;;5118957;28;20201;-80
2023/04/26 07:44:29;;;;;;;9.93;3.00;;;8.30;99.90;;;;;;5118737;28;20196;-80
2023/04/26 07:46:55;;;;;;;9.17;3.47;;;8.30;99.90;;;;;;5119082;28;20215;-81
2023/04/26 07:49:22;;;;;;;5.60;2.70;;;8.10;99.90;;;;;;5117233;28;20459;-80
2023/04/26 07:51:51;;;;;;;10.10;2.60;;;7.80;99.90;;;;;;5117336;28;20211;-80
2023/04/26 07:54:17;;;;;;;7.43;3.00;;;7.70;99.90;;;;;;5117642;28;20209;-80
2023/04/26 07:56:44;;;;;;;7.43;3.17;;;7.50;99.90;;;;;;5117568;28;20578;-79
2023/04/26 07:59:12;;;;;;;8.60;3.00;;;7.50;99.90;;;;;;5116217;28;20260;-79
2023/04/26 08:01:39;;;;;;;3.53;2.43;;;7.70;99.90;;;;;;5118013;28;20658;-80
2023/04/26 08:04:06;;;;;;;8.80;2.83;;;8.00;99.90;;;;;;5117259;28;20211;-79
2023/04/26 08:06:33;;;;;;;8.23;2.63;;;8.20;99.90;;;;;;5118189;28;20211;-79
2023/04/26 08:08:59;;;;;;;5.53;2.30;;;8.60;99.90;;;;;;5117164;28;20231;-80
2023/04/26 08:11:26;;;;;;;4.13;2.10;;;8.80;99.90;;;;;;5118365;28;20272;-79
2023/04/26 08:13:53;;;;;;;3.30;1.83;;;8.60;99.90;;;;;;5117109;28;20209;-78
2023/04/26 08:16:21;;;;;;;5.27;2.20;;;8.30;99.90;;;;;;5116226;28;20238;-79
2023/04/26 08:18:48;;;;;;;4.93;1.87;;;8.40;99.90;;;;;;5116585;28;20488;-80
2023/04/26 08:21:15;;;;;;;4.37;2.00;;;8.60;99.90;;;;;;5117530;28;20193;-79
2023/04/26 08:23:42;;;;;;;5.10;1.83;;;9.00;99.90;;;;;;5117426;28;20201;-79
2023/04/26 08:26:09;;;;;;;7.67;2.30;;;8.90;99.90;;;;;;5116484;28;20205;-80
2023/04/26 08:28:36;;;;;;;4.93;2.47;;;9.00;99.90;;;;;;5116371;28;20225;-81
2023/04/26 08:31:03;;;;;;;7.13;1.93;;;9.00;99.90;;;;;;5116717;28;20232;-80
2023/04/26 08:33:31;;;;;;;8.00;4.10;;;9.20;99.90;;;;;;5117073;28;20522;-80
2023/04/26 08:35:59;;;;;;;9.10;4.03;;;9.30;99.90;;;;;;5116626;28;20287;-80
2023/04/26 08:38:26;;;;;;;7.30;2.37;;;9.10;99.90;;;;;;5105816;28;20251;-80
2023/04/26 08:41:00;;;;;;;7.87;3.00;;;9.10;99.90;;;;;;5110338;28;20197;-78
2023/04/26 08:43:28;;;;;;;5.67;2.40;;;9.40;99.90;;;;;;5112630;28;20738;-79
2023/04/26 08:45:55;;;;;;;6.20;2.50;;;9.60;99.90;;;;;;5104800;28;20197;-79
2023/04/26 08:48:23;;;;;;;4.13;2.10;;;9.40;99.90;;;;;;5103017;28;20224;-80
2023/04/26 08:50:53;;;;;;;6.40;2.07;;;9.30;99.90;;;;;;5093810;28;20242;-79
2023/04/26 08:53:20;;;;;;;7.43;2.00;;;9.60;99.90;;;;;;5108225;28;20200;-80
2023/04/26 08:55:49;;;;;;;6.97;2.30;;;9.60;99.90;;;;;;5099752;28;20209;-79
2023/04/26 08:58:16;;;;;;;5.37;2.13;;;9.20;99.90;;;;;;5094267;28;20213;-80
2023/04/26 09:00:45;;;;;;;3.90;2.00;;;9.20;99.90;;;;;;5093391;28;20208;-80
2023/04/26 09:03:11;;;;;;;5.13;1.90;;;9.60;99.90;;;;;;5094299;28;20721;-80
2023/04/26 09:05:42;;;;;;;2.70;1.87;;;9.80;99.90;;;;;;5095093;28;20208;-80
2023/04/26 09:08:15;;;;;;;6.17;2.13;;;10.40;99.90;;;;;;5108327;28;20284;-81
2023/04/26 09:10:42;;;;;;;3.03;2.13;;;10.00;99.90;;;;;;5112870;28;20311;-80
2023/04/26 09:13:10;;;;;;;10.83;2.30;;;9.60;99.90;;;;;;5109964;28;20215;-80
2023/04/26 09:15:37;;;;;;;4.27;1.80;;;9.30;99.90;;;;;;5095921;28;20208;-79
2023/04/26 09:18:17;;;;;;;4.53;2.10;;;9.30;99.90;;;;;;5095761;28;20201;-80
2023/04/26 09:20:46;;;;;;;3.73;1.83;;;9.40;9.80;;;;;;5095995;28;20249;-80
2023/04/26 09:23:15;;;;;;;3.37;1.70;;;9.80;1.00;;;;;;5095666;28;20296;-80
2023/04/26 09:25:42;;;;;;;4.23;1.70;;;10.50;1.00;;;;;;5095048;28;20205;-79
2023/04/26 09:28:30;;;;;;;5.67;3.10;;;10.90;1.00;;;;;;5094603;28;20205;-79
2023/04/26 09:30:57;;;;;;;7.13;1.80;;;11.20;1.00;;;;;;5086768;28;20228;-79
2023/04/26 09:33:24;;;;;;;6.97;2.10;;;11.20;1.00;;;;;;5095318;28;20205;-80
2023/04/26 09:35:50;;;;;;;3.50;1.93;;;10.90;1.00;;;;;;5096108;28;20250;-80
2023/04/26 09:38:19;;;;;;;6.43;2.03;;;10.50;1.00;;;;;;5101479;28;20201;-80
2023/04/26 09:40:50;;;;;;;4.13;1.83;;;10.60;99.90;;;;;;5117822;28;20192;-79
2023/04/26 09:43:18;;;;;;;4.23;1.90;;;10.30;1.00;;;;;;5114125;28;20205;-80
2023/04/26 09:45:48;;;;;;;4.57;2.00;;;10.30;1.00;;;;;;5113463;28;20204;-80
2023/04/26 09:48:17;;;;;;;7.63;2.00;;;10.10;1.00;;;;;;5115497;28;20647;-80
2023/04/26 09:50:45;;;;;;;2.83;2.00;;;10.50;1.00;;;;;;5098645;28;20225;-80
2023/04/26 09:53:12;;;;;;;5.63;3.17;;;10.20;99.90;;;;;;5099735;28;20205;-79
2023/04/26 09:55:40;;;;;;;6.33;2.70;;;10.20;92.30;;;;;;5099762;28;20216;-80
2023/04/26 09:58:10;;;;;;;4.00;1.80;;;9.90;1.00;;;;;;5100200;28;20273;-80
2023/04/26 10:00:41;;;;;;;3.70;2.27;;;10.00;1.00;;;;;;5098555;28;20205;-81
2023/04/26 10:03:11;;;;;;;4.57;2.00;;;9.80;1.00;;;;;;5097490;28;20284;-81
2023/04/26 10:05:39;;;;;;;3.33;1.80;;;9.80;1.00;;;;;;5098271;28;20292;-79
2023/04/26 10:08:07;;;;;;;7.17;2.17;;;9.70;1.00;;;;;;5097854;28;20651;-79
2023/04/26 10:10:35;;;;;;;6.20;2.10;;;9.70;1.00;;;;;;5097017;28;20672;-81
2023/04/26 10:13:05;;;;;;;4.23;2.20;;;9.70;1.00;;;;;;5098703;28;20740;-80
2023/04/26 10:15:32;;;;;;;3.90;2.20;;;9.80;1.00;;;;;;5096496;28;20207;-80
2023/04/26 10:17:59;;;;;;;6.27;2.30;;;9.50;99.90;;;;;;5098287;28;20201;-80
2023/04/26 10:20:29;;;;;;;5.60;2.60;;;10.00;1.00;;;;;;5118334;28;20253;-80
2023/04/26 10:23:00;;;;;;;4.37;2.23;;;10.20;1.00;;;;;;5101961;28;20223;-79
2023/04/26 10:25:36;;;;;;;4.43;1.77;;;10.10;99.90;;;;;;5096763;28;20463;-80
2023/04/26 10:28:04;;;;;;;2.77;1.80;;;10.40;99.90;;;;;;5098027;28;20670;-80
2023/04/26 10:30:32;;;;;;;4.80;2.23;;;10.40;1.00;;;;;;5096954;28;20362;-78
2023/04/26 10:33:16;;;;;;;3.50;1.73;;;10.80;1.00;;;;;;5112661;28;20201;-79
2023/04/26 10:36:04;;;;;;;6.20;2.00;;;11.00;7.80;;;;;;5118077;28;20209;-80
2023/04/26 10:38:31;;;;;;;2.33;1.80;;;10.90;1.00;;;;;;5117768;28;20221;-80
2023/04/26 10:41:29;;;;;;;4.33;1.97;;;10.50;1.00;;;;;;5118594;28;20284;-80
2023/04/26 10:44:00;;;;;;;3.53;2.33;;;10.20;1.00;;;;;;5118729;28;20295;-79
2023/04/26 10:46:35;;;;;;;5.77;2.13;;;10.10;1.00;;;;;;5118667;28;20201;-80
2023/04/26 10:49:13;;;;;;;4.30;2.07;;;10.10;1.00;;;;;;5116392;28;20229;-81
2023/04/26 10:51:40;;;;;;;3.90;1.90;;;10.30;1.00;;;;;;5119209;28;20285;-80
2023/04/26 10:54:07;;;;;;;5.83;2.10;;;10.10;1.00;;;;;;5106322;28;20206;-79
2023/04/26 10:56:52;;;;;;;5.20;2.10;;;10.10;1.00;;;;;;5104738;28;20295;-80
2023/04/26 10:59:23;;;;;;;3.40;1.70;;;10.10;99.90;;;;;;5096580;28;20233;-82
2023/04/26 11:01:52;;;;;;;3.77;1.63;;;10.00;99.90;;;;;;5096765;28;20204;-80
2023/04/26 11:04:19;;;;;;;3.53;1.80;;;10.40;99.90;;;;;;5115031;28;20252;-80
2023/04/26 11:06:50;;;;;;;4.57;1.80;;;10.60;99.90;;;;;;5098095;28;20201;-80
2023/04/26 11:09:38;;;;;;;2.57;1.47;;;10.80;99.90;;;;;;5097785;28;20226;-80
2023/04/26 11:12:06;;;;;;;1.50;1.40;;;11.30;99.90;;;;;;5097246;28;20225;-79
2023/04/26 11:14:35;;;;;;;2.60;1.73;;;11.30;1.00;;;;;;5100431;28;20552;-80
2023/04/26 11:17:04;;;;;;;3.63;1.23;;;11.60;1.00;;;;;;5103965;28;20675;-81
2023/04/26 11:19:32;;;;;;;3.47;1.60;;;12.30;99.20;;;;;;5095921;28;20598;-80
2023/04/26 11:21:59;;;;;;;4.47;1.90;;;12.50;99.90;;;;;;5109330;28;20254;-79
2023/04/26 11:24:27;;;;;;;2.60;1.53;;;12.80;39.50;;;;;;5115525;28;20208;-79
2023/04/26 11:26:54;;;;;;;1.60;1.50;;;12.40;1.00;;;;;;5111124;28;20659;-77
2023/04/26 11:29:21;;;;;;;5.03;1.63;;;11.90;1.00;;;;;;5096061;28;20217;-80
2023/04/26 11:31:54;;;;;;;2.17;1.60;;;11.70;1.00;;;;;;5103120;28;20263;-80
2023/04/26 11:34:23;;;;;;;3.67;1.87;;;11.50;1.00;;;;;;5117779;28;20196;-80
2023/04/26 11:36:51;;;;;;;2.53;1.73;;;11.00;1.00;;;;;;5112599;28;20282;-81
2023/04/26 11:39:21;;;;;;;2.43;1.60;;;11.10;1.00;;;;;;5116465;28;20221;-80
2023/04/26 11:41:48;;;;;;;5.67;2.23;;;11.30;1.00;;;;;;5116650;28;20200;-80
2023/04/26 11:44:19;;;;;;;2.10;1.70;;;11.10;1.00;;;;;;5116237;28;20567;-80
2023/04/26 11:46:47;;;;;;;2.60;1.87;;;11.30;1.00;;;;;;5116806;28;20201;-81
2023/04/26 11:49:16;;;;;;;3.43;1.80;;;11.50;1.00;;;;;;5116621;28;20235;-79
2023/04/26 11:51:44;;;;;;;3.37;2.20;;;11.10;1.00;;;;;;5103469;28;20603;-78
2023/04/26 11:54:11;;;;;;;5.10;2.63;;;11.40;99.90;;;;;;5103492;28;20208;-80
2023/04/26 11:56:39;;;;;;;6.13;3.33;;;11.30;99.90;;;;;;5107264;28;20296;-80
2023/04/26 11:59:06;;;;;;;8.20;4.30;;;11.20;99.90;;;;;;5097358;28;20231;-80
2023/04/26 12:01:33;;;;;;;9.03;4.27;;;11.10;99.90;;;;;;5094571;28;20886;-81
2023/04/26 12:04:00;;;;;;;9.07;4.03;;;11.10;99.90;;;;;;5094883;28;20217;-80
2023/04/26 12:06:42;;;;;;;5.47;3.53;;;11.00;99.90;;;;;;5115269;28;20626;-80
2023/04/26 12:09:10;;;;;;;5.20;3.00;;;11.20;99.90;;;;;;5113312;28;20709;-81
2023/04/26 12:11:37;;;;;;;3.90;2.80;;;11.30;99.90;;;;;;5113720;28;20247;-80
2023/04/26 12:14:04;;;;;;;6.13;2.80;;;11.40;99.90;;;;;;5114544;28;20197;-81
2023/04/26 12:16:31;;;;;;;6.20;2.80;;;11.30;99.90;;;;;;5116009;28;20236;-80
2023/04/26 12:18:58;;;;;;;5.87;3.07;;;11.00;62.30;;;;;;5104239;28;20221;-80
2023/04/26 12:21:26;;;;;;;4.17;2.60;;;10.80;69.60;;;;;;5097518;28;20219;-80
2023/04/26 12:23:54;;;;;;;2.87;2.27;;;10.60;1.00;;;;;;5115635;28;20258;-80
2023/04/26 12:26:21;;;;;;;3.87;2.13;;;10.60;1.00;;;;;;5116179;28;20566;-80
2023/04/26 12:28:48;;;;;;;4.87;2.60;;;10.50;1.00;;;;;;5115213;28;20227;-80
2023/04/26 12:31:14;;;;;;;3.57;2.40;;;10.80;1.00;;;;;;5116209;28;20610;-80
2023/04/26 12:33:41;;;;;;;4.23;2.70;;;11.60;1.00;;;;;;5104494;28;20206;-80
2023/04/26 12:36:10;;;;;;;6.00;2.63;;;12.20;46.90;;;;;;5095337;28;20581;-82
2023/04/26 12:38:37;;;;;;;5.53;2.43;;;13.00;99.90;;;;;;5106685;28;20613;-80
2023/04/26 12:41:05;;;;;;;5.40;2.63;;;12.60;1.00;;;;;;5116007;28;20197;-80
2023/04/26 12:43:32;;;;;;;4.77;2.47;;;12.90;48.90;;;;;;5101656;28;20580;-80
2023/04/26 12:45:59;;;;;;;6.13;2.40;;;13.00;1.00;;;;;;5095031;28;20238;-80
2023/04/26 12:48:27;;;;;;;3.70;2.20;;;13.10;1.00;;;;;;5095817;28;20208;-81
2023/04/26 12:50:53;;;;;;;3.80;2.70;;;13.10;1.00;;;;;;5095063;28;20230;-79
2023/04/26 12:53:20;;;;;;;4.53;2.20;;;12.90;1.00;;;;;;5108742;28;20231;-80
2023/04/26 12:55:47;;;;;;;4.33;3.23;;;12.90;1.00;;;;;;5115156;28;20655;-79
2023/04/26 12:58:15;;;;;;;4.63;2.17;;;13.10;1.00;;;;;;5107595;28;20209;-80